Time;durP1;ratioP1;P1;durP2;ratioP2;P2;SDS_P1;SDS_P2;PMS_P1;PMS_P2;Temp;Humidity;BMP_temperature;BMP_pressure;BME280_temperature;BME280_humidity;BME280_pressure;Samples;Min_cycle;Max_cycle;Signal;HPM_P1;HPM_P2
2021/03/07 00:00:43;;;;;;;10.75;9.63;;;0.40;80.10;;;;;;4932110;29;20333;-80
2021/03/07 00:03:10;;;;;;;10.27;9.18;;;0.30;80.00;;;;;;4934079;29;20734;-81
2021/03/07 00:05:36;;;;;;;10.20;9.30;;;0.30;79.90;;;;;;4939377;29;20288;-81
2021/03/07 00:08:04;;;;;;;10.02;9.00;;;0.30;80.10;;;;;;4938636;29;20238;-81
2021/03/07 00:10:30;;;;;;;10.63;8.55;;;0.30;80.20;;;;;;4945744;29;20296;-82
2021/03/07 00:12:57;;;;;;;10.85;9.23;;;0.30;80.50;;;;;;4933269;29;20561;-82
2021/03/07 00:15:24;;;;;;;10.73;8.65;;;0.30;80.80;;;;;;4937676;29;20209;-82
2021/03/07 00:17:50;;;;;;;12.45;10.23;;;0.30;81.20;;;;;;4943521;29;20213;-82
2021/03/07 00:20:19;;;;;;;12.43;10.55;;;0.30;81.50;;;;;;4943663;29;20274;-82
2021/03/07 00:22:45;;;;;;;11.38;9.85;;;0.30;81.80;;;;;;4942709;29;20219;-82
2021/03/07 00:25:14;;;;;;;13.02;9.77;;;0.20;81.70;;;;;;4943637;29;20213;-82
2021/03/07 00:27:43;;;;;;;10.55;8.90;;;0.20;82.10;;;;;;4943001;29;20210;-82
2021/03/07 00:30:13;;;;;;;9.50;8.57;;;0.20;82.30;;;;;;4942984;29;20641;-82
2021/03/07 00:32:39;;;;;;;11.77;9.55;;;0.20;82.20;;;;;;4942690;29;20563;-82
2021/03/07 00:35:07;;;;;;;10.20;8.73;;;0.20;82.40;;;;;;4943462;29;20233;-81
2021/03/07 00:37:34;;;;;;;8.93;8.00;;;0.10;82.50;;;;;;4942457;29;20645;-81
2021/03/07 00:40:00;;;;;;;9.30;8.43;;;0.10;82.70;;;;;;4942268;29;20677;-82
2021/03/07 00:42:28;;;;;;;10.75;8.00;;;0.10;82.60;;;;;;4942882;29;20217;-81
2021/03/07 00:44:54;;;;;;;10.20;8.52;;;0.10;82.70;;;;;;4942891;29;20213;-81
2021/03/07 00:47:20;;;;;;;11.05;9.45;;;0.10;82.80;;;;;;4943976;29;20568;-82
2021/03/07 00:49:47;;;;;;;9.30;8.02;;;0.10;82.80;;;;;;4942556;29;20215;-81
2021/03/07 00:52:13;;;;;;;6.97;6.28;;;0.00;82.60;;;;;;4942537;29;20217;-82
2021/03/07 00:54:39;;;;;;;7.53;6.75;;;0.00;82.60;;;;;;4943948;29;20221;-82
2021/03/07 00:57:06;;;;;;;7.53;6.82;;;0.00;82.50;;;;;;4943525;29;20237;-82
2021/03/07 00:59:33;;;;;;;7.55;6.78;;;0.00;82.40;;;;;;4943294;29;20218;-81
2021/03/07 01:01:59;;;;;;;6.75;6.15;;;0.00;82.50;;;;;;4943405;29;20226;-81
2021/03/07 01:04:25;;;;;;;5.70;5.20;;;0.00;82.40;;;;;;4942926;29;20209;-82
2021/03/07 01:06:52;;;;;;;7.15;6.43;;;0.00;82.40;;;;;;4943034;29;20214;-82
2021/03/07 01:09:18;;;;;;;9.73;8.23;;;0.00;82.10;;;;;;4943185;29;20210;-82
2021/03/07 01:11:46;;;;;;;11.25;8.75;;;0.00;81.80;;;;;;4942551;29;20233;-82
2021/03/07 01:14:12;;;;;;;9.25;8.35;;;-0.10;82.20;;;;;;4943069;29;20218;-81
2021/03/07 01:16:42;;;;;;;10.40;9.40;;;-0.10;82.40;;;;;;4942330;29;20693;-81
2021/03/07 01:19:09;;;;;;;11.63;9.80;;;-0.10;82.40;;;;;;4942601;29;20197;-81
2021/03/07 01:21:35;;;;;;;12.93;9.50;;;-0.10;82.50;;;;;;4942489;29;20230;-81
2021/03/07 01:24:02;;;;;;;9.90;8.88;;;-0.10;82.80;;;;;;4942891;29;20206;-82
2021/03/07 01:26:28;;;;;;;11.88;9.50;;;-0.10;83.20;;;;;;4942213;29;20213;-82
2021/03/07 01:28:54;;;;;;;10.73;8.52;;;-0.10;83.20;;;;;;4942757;29;20244;-82
2021/03/07 01:31:20;;;;;;;10.02;8.98;;;-0.10;83.30;;;;;;4942982;29;20241;-82
2021/03/07 01:33:47;;;;;;;9.48;8.48;;;-0.10;83.20;;;;;;4942359;29;20272;-82
2021/03/07 01:36:14;;;;;;;8.90;7.80;;;-0.20;83.00;;;;;;4941977;29;20292;-82
2021/03/07 01:38:40;;;;;;;11.70;8.55;;;-0.20;83.10;;;;;;4942342;29;20211;-82
2021/03/07 01:41:07;;;;;;;9.30;8.50;;;-0.20;83.40;;;;;;4941713;29;20241;-82
2021/03/07 01:43:33;;;;;;;10.60;7.95;;;-0.20;83.50;;;;;;4942166;29;20214;-82
2021/03/07 01:45:59;;;;;;;10.05;8.30;;;-0.20;83.80;;;;;;4942304;29;20264;-82
2021/03/07 01:48:25;;;;;;;10.60;9.73;;;-0.30;84.00;;;;;;4942538;29;20221;-81
2021/03/07 01:50:54;;;;;;;8.85;7.00;;;-0.30;84.40;;;;;;4941825;29;20245;-82
2021/03/07 01:53:21;;;;;;;9.43;8.30;;;-0.30;84.70;;;;;;4942085;29;20214;-82
2021/03/07 01:55:50;;;;;;;10.73;6.80;;;-0.30;84.80;;;;;;4942487;29;20218;-82
2021/03/07 01:58:22;;;;;;;8.38;7.57;;;-0.30;85.00;;;;;;4942542;29;20694;-82
2021/03/07 02:00:49;;;;;;;8.93;8.02;;;-0.40;85.10;;;;;;4942418;29;20235;-82
2021/03/07 02:03:15;;;;;;;10.10;9.10;;;-0.40;85.30;;;;;;4942335;29;20736;-80
2021/03/07 02:05:42;;;;;;;8.10;7.05;;;-0.40;85.30;;;;;;4941966;29;20276;-81
2021/03/07 02:08:10;;;;;;;13.98;7.25;;;-0.40;85.60;;;;;;4942159;29;20213;-82
2021/03/07 02:10:39;;;;;;;8.15;6.78;;;-0.40;85.80;;;;;;4941538;29;20229;-82
2021/03/07 02:13:11;;;;;;;8.35;7.60;;;-0.50;85.90;;;;;;4941492;29;20216;-82
2021/03/07 02:15:40;;;;;;;8.57;7.28;;;-0.50;86.30;;;;;;4941539;29;20217;-82
2021/03/07 02:18:07;;;;;;;13.93;6.82;;;-0.50;86.50;;;;;;4941592;29;20242;-82
2021/03/07 02:20:36;;;;;;;8.77;7.80;;;-0.50;86.80;;;;;;4942060;29;20229;-82
2021/03/07 02:23:07;;;;;;;9.80;8.80;;;-0.50;87.30;;;;;;4950383;29;20246;-80
2021/03/07 02:25:35;;;;;;;9.07;7.85;;;-0.50;87.80;;;;;;4957539;29;20198;-82
2021/03/07 02:28:02;;;;;;;9.10;8.15;;;-0.50;88.00;;;;;;4957698;29;20278;-80
2021/03/07 02:30:29;;;;;;;10.23;7.47;;;-0.60;88.00;;;;;;4951042;29;20234;-82
2021/03/07 02:33:04;;;;;;;8.50;7.55;;;-0.60;88.30;;;;;;4942269;29;20233;-82
2021/03/07 02:35:33;;;;;;;8.25;7.47;;;-0.60;88.60;;;;;;4942074;29;20268;-82
2021/03/07 02:38:02;;;;;;;7.30;6.60;;;-0.60;88.70;;;;;;4942856;29;20260;-83
2021/03/07 02:40:30;;;;;;;8.50;7.60;;;-0.60;88.90;;;;;;4946140;29;20236;-82
2021/03/07 02:42:59;;;;;;;7.32;6.57;;;-0.60;89.00;;;;;;4944746;29;20216;-81
2021/03/07 02:45:26;;;;;;;6.30;5.60;;;-0.60;89.20;;;;;;4945633;29;20217;-82
2021/03/07 02:47:54;;;;;;;8.32;7.53;;;-0.70;89.00;;;;;;4945502;29;20202;-81
2021/03/07 02:50:25;;;;;;;6.47;5.88;;;-0.70;89.20;;;;;;4945094;29;20729;-81
2021/03/07 02:52:56;;;;;;;7.55;6.80;;;-0.70;89.10;;;;;;4945104;29;20210;-83
2021/03/07 02:55:26;;;;;;;8.10;7.30;;;-0.70;89.10;;;;;;4945500;29;20217;-82
2021/03/07 02:57:54;;;;;;;8.65;6.82;;;-0.70;89.10;;;;;;4944537;29;20233;-80
2021/03/07 03:00:24;;;;;;;8.48;6.20;;;-0.70;89.20;;;;;;4944750;29;20279;-81
2021/03/07 03:02:54;;;;;;;8.65;6.72;;;-0.80;89.00;;;;;;4944501;29;20576;-82
2021/03/07 03:05:21;;;;;;;7.10;6.50;;;-0.80;89.10;;;;;;4945203;29;20206;-82
2021/03/07 03:07:49;;;;;;;7.32;6.60;;;-0.80;89.20;;;;;;4944835;29;20217;-82
2021/03/07 03:10:15;;;;;;;8.75;6.93;;;-0.80;90.00;;;;;;4944838;29;20230;-80
2021/03/07 03:12:44;;;;;;;7.05;6.45;;;-0.80;89.40;;;;;;4944995;29;20305;-82
2021/03/07 03:15:12;;;;;;;8.88;6.47;;;-0.80;89.40;;;;;;4945361;29;20268;-83
2021/03/07 03:17:40;;;;;;;7.18;5.90;;;-0.90;89.30;;;;;;4945327;29;20225;-82
2021/03/07 03:20:12;;;;;;;6.75;6.15;;;-0.90;89.50;;;;;;4945072;29;20269;-82
2021/03/07 03:22:39;;;;;;;8.30;6.95;;;-0.90;89.60;;;;;;4945264;29;20276;-82
2021/03/07 03:25:07;;;;;;;8.65;7.40;;;-0.90;89.80;;;;;;4945263;29;20224;-81
2021/03/07 03:27:34;;;;;;;8.68;7.72;;;-0.90;90.00;;;;;;4944574;29;20230;-82
2021/03/07 03:30:01;;;;;;;10.63;7.63;;;-0.90;90.20;;;;;;4943862;29;20216;-83
2021/03/07 03:32:29;;;;;;;7.25;6.55;;;-0.90;90.30;;;;;;4944975;29;20220;-82
2021/03/07 03:34:58;;;;;;;9.10;8.20;;;-0.90;90.30;;;;;;4944726;29;20217;-83
2021/03/07 03:37:24;;;;;;;11.90;7.13;;;-1.00;90.20;;;;;;4944958;29;20229;-83
2021/03/07 03:39:53;;;;;;;7.80;7.07;;;-1.00;90.20;;;;;;4944227;29;20214;-83
2021/03/07 03:42:20;;;;;;;8.98;7.50;;;-1.00;90.30;;;;;;4944446;29;20305;-82
2021/03/07 03:44:47;;;;;;;7.18;6.45;;;-1.00;90.40;;;;;;4944664;29;20221;-82
2021/03/07 03:47:15;;;;;;;8.65;6.80;;;-0.90;90.60;;;;;;4945311;29;20210;-83
2021/03/07 03:49:48;;;;;;;7.70;6.43;;;-1.00;90.60;;;;;;4943880;29;20676;-82
2021/03/07 03:52:17;;;;;;;7.20;6.60;;;-1.00;90.60;;;;;;4944160;29;20225;-81
2021/03/07 03:54:46;;;;;;;11.18;7.30;;;-1.00;90.70;;;;;;4943902;29;20206;-82
2021/03/07 03:57:15;;;;;;;8.48;7.68;;;-1.00;90.80;;;;;;4943448;29;20225;-82
2021/03/07 03:59:43;;;;;;;7.45;5.28;;;-1.00;90.80;;;;;;4943590;29;20210;-82
2021/03/07 04:02:10;;;;;;;8.98;6.70;;;-1.00;90.90;;;;;;4943566;29;20236;-82
2021/03/07 04:04:36;;;;;;;10.93;7.05;;;-1.00;90.90;;;;;;4943624;29;20213;-81
2021/03/07 04:07:03;;;;;;;7.03;6.30;;;-1.00;91.00;;;;;;4943399;29;20206;-81
2021/03/07 04:09:31;;;;;;;8.25;7.07;;;-1.00;91.00;;;;;;4943593;29;20206;-82
2021/03/07 04:11:58;;;;;;;9.02;6.97;;;-1.00;91.10;;;;;;4943151;29;20238;-82
2021/03/07 04:14:25;;;;;;;6.75;6.15;;;-1.00;91.20;;;;;;4942645;29;20209;-81
2021/03/07 04:16:52;;;;;;;14.98;8.65;;;-1.00;91.20;;;;;;4943404;29;20230;-82
2021/03/07 04:19:19;;;;;;;8.30;7.53;;;-1.00;91.40;;;;;;4943027;29;20579;-82
2021/03/07 04:21:47;;;;;;;8.77;7.88;;;-1.00;91.60;;;;;;4943087;29;20229;-82
2021/03/07 04:24:14;;;;;;;7.55;6.70;;;-1.10;91.60;;;;;;4943020;29;20221;-81
2021/03/07 04:26:41;;;;;;;12.52;8.55;;;-1.00;92.10;;;;;;4943158;29;20213;-81
2021/03/07 04:29:07;;;;;;;10.02;7.88;;;-1.10;91.80;;;;;;4942336;29;20245;-82
2021/03/07 04:31:34;;;;;;;10.45;6.68;;;-1.10;91.80;;;;;;4942226;29;20245;-82
2021/03/07 04:34:01;;;;;;;8.25;7.55;;;-1.10;91.80;;;;;;4942683;29;20214;-81
2021/03/07 04:36:28;;;;;;;9.27;7.40;;;-1.10;91.90;;;;;;4942435;29;20708;-82
2021/03/07 04:38:54;;;;;;;7.85;7.13;;;-1.10;91.90;;;;;;4942229;29;20221;-82
2021/03/07 04:41:21;;;;;;;8.75;7.45;;;-1.10;91.90;;;;;;4943252;29;20592;-79
2021/03/07 04:43:53;;;;;;;8.70;6.60;;;-1.10;92.00;;;;;;4942425;29;20228;-81
2021/03/07 04:46:20;;;;;;;7.78;6.60;;;-1.20;92.50;;;;;;4942798;29;20206;-81
2021/03/07 04:48:46;;;;;;;13.15;8.30;;;-1.20;92.30;;;;;;4942762;29;20310;-81
2021/03/07 04:51:13;;;;;;;7.43;6.72;;;-1.20;92.40;;;;;;4942465;29;20241;-81
2021/03/07 04:53:39;;;;;;;8.30;7.50;;;-1.20;92.50;;;;;;4942282;29;20214;-81
2021/03/07 04:56:05;;;;;;;7.95;6.65;;;-1.20;92.70;;;;;;4938579;29;20240;-80
2021/03/07 04:58:33;;;;;;;8.00;6.93;;;-1.20;92.80;;;;;;4938083;29;20217;-81
2021/03/07 05:01:00;;;;;;;8.75;7.20;;;-1.20;92.80;;;;;;4937314;29;20234;-80
2021/03/07 05:03:26;;;;;;;8.88;7.22;;;-1.20;92.90;;;;;;4937511;29;20209;-81
2021/03/07 05:05:53;;;;;;;7.95;7.15;;;-1.20;93.00;;;;;;4937711;29;20225;-81
2021/03/07 05:08:19;;;;;;;8.13;7.32;;;-1.20;93.10;;;;;;4937848;29;20213;-80
2021/03/07 05:10:46;;;;;;;6.85;6.05;;;-1.20;93.20;;;;;;4937511;29;20221;-81
2021/03/07 05:13:13;;;;;;;9.45;6.97;;;-1.20;93.20;;;;;;4937376;29;20265;-80
2021/03/07 05:15:40;;;;;;;8.23;6.80;;;-1.20;93.20;;;;;;4938001;29;20686;-80
2021/03/07 05:18:07;;;;;;;10.18;7.47;;;-1.20;93.20;;;;;;4937600;29;20234;-81
2021/03/07 05:20:33;;;;;;;7.55;6.72;;;-1.20;93.20;;;;;;4941377;29;20233;-79
2021/03/07 05:23:00;;;;;;;7.55;6.85;;;-1.20;93.10;;;;;;4941639;29;20221;-78
2021/03/07 05:25:26;;;;;;;10.95;7.15;;;-1.20;93.10;;;;;;4941693;29;20302;-78
2021/03/07 05:27:52;;;;;;;9.70;6.60;;;-1.20;93.20;;;;;;4938204;29;20260;-80
2021/03/07 05:30:19;;;;;;;8.07;7.28;;;-1.20;93.20;;;;;;4937587;29;20225;-82
2021/03/07 05:32:46;;;;;;;8.05;7.30;;;-1.20;93.20;;;;;;4936984;29;20225;-79
2021/03/07 05:35:13;;;;;;;8.60;6.90;;;-1.20;93.20;;;;;;4937791;29;20690;-80
2021/03/07 05:37:39;;;;;;;7.35;6.43;;;-1.10;93.30;;;;;;4937250;29;20230;-80
2021/03/07 05:40:07;;;;;;;7.88;7.03;;;-1.10;93.40;;;;;;4937032;29;20210;-80
2021/03/07 05:42:34;;;;;;;9.18;8.27;;;-1.10;93.40;;;;;;4937159;29;20213;-82
2021/03/07 05:45:00;;;;;;;9.15;8.27;;;-1.20;93.30;;;;;;4937001;29;20212;-82
2021/03/07 05:47:27;;;;;;;10.45;7.43;;;-1.20;93.30;;;;;;4937497;29;20213;-81
2021/03/07 05:49:53;;;;;;;8.00;6.97;;;-1.20;93.40;;;;;;4936873;29;20213;-80
2021/03/07 05:52:23;;;;;;;9.57;8.70;;;-1.10;93.40;;;;;;4936832;29;20225;-80
2021/03/07 05:54:52;;;;;;;8.90;8.02;;;-1.30;93.50;;;;;;4937664;29;20464;-79
2021/03/07 05:57:23;;;;;;;10.80;7.82;;;-1.30;93.60;;;;;;4937567;29;20285;-81
2021/03/07 05:59:51;;;;;;;7.38;6.68;;;-1.30;93.60;;;;;;4937184;29;20201;-81
2021/03/07 06:02:18;;;;;;;8.40;7.60;;;-1.30;93.70;;;;;;4936996;29;20213;-82
2021/03/07 06:04:51;;;;;;;9.25;7.68;;;-1.30;93.70;;;;;;4937364;29;20210;-82
2021/03/07 06:07:18;;;;;;;8.80;7.50;;;-1.30;93.80;;;;;;4937182;29;20218;-82
2021/03/07 06:09:45;;;;;;;14.98;10.90;;;-1.20;93.90;;;;;;4936686;29;20205;-82
2021/03/07 06:12:15;;;;;;;10.90;9.00;;;-1.30;94.00;;;;;;4936616;29;20244;-82
2021/03/07 06:14:43;;;;;;;10.70;7.20;;;-1.20;94.00;;;;;;4937278;29;20205;-82
2021/03/07 06:17:13;;;;;;;9.32;7.07;;;-1.20;94.10;;;;;;4936892;29;20226;-82
2021/03/07 06:19:57;;;;;;;8.73;7.50;;;-1.20;94.30;;;;;;4937094;29;20210;-81
2021/03/07 06:22:24;;;;;;;8.60;7.80;;;-1.10;94.40;;;;;;4936829;29;20213;-82
2021/03/07 06:24:51;;;;;;;9.00;7.40;;;-1.10;94.40;;;;;;4937290;29;20210;-82
2021/03/07 06:27:18;;;;;;;10.18;6.60;;;-1.10;94.40;;;;;;4936862;29;20241;-82
2021/03/07 06:29:55;;;;;;;7.45;6.68;;;-1.00;94.50;;;;;;4937036;29;20306;-82
2021/03/07 06:32:22;;;;;;;7.40;6.53;;;-1.00;94.40;;;;;;4936315;29;20217;-82
2021/03/07 06:34:49;;;;;;;8.50;7.60;;;-0.90;94.50;;;;;;4936611;29;20213;-82
2021/03/07 06:37:16;;;;;;;9.20;8.30;;;-0.90;94.50;;;;;;4936678;29;20233;-82
2021/03/07 06:39:43;;;;;;;7.15;6.50;;;-0.90;94.50;;;;;;4936819;29;20301;-82
2021/03/07 06:42:12;;;;;;;7.63;6.90;;;-0.90;94.40;;;;;;4936628;29;20233;-82
2021/03/07 06:44:50;;;;;;;9.27;7.50;;;-0.90;94.50;;;;;;4936807;29;20213;-82
2021/03/07 06:47:18;;;;;;;13.18;9.18;;;-0.80;94.50;;;;;;4936529;29;20186;-82
2021/03/07 06:49:45;;;;;;;6.93;5.90;;;-0.70;94.60;;;;;;4930764;29;20213;-82
2021/03/07 06:52:19;;;;;;;8.48;7.68;;;-0.70;94.60;;;;;;4925415;29;20252;-82
2021/03/07 06:55:01;;;;;;;7.35;6.75;;;-0.60;94.50;;;;;;4925955;29;20204;-82
2021/03/07 06:57:29;;;;;;;8.48;7.57;;;-0.60;94.50;;;;;;4927595;29;20280;-82
2021/03/07 06:59:56;;;;;;;7.70;6.95;;;-0.50;94.40;;;;;;4925002;29;20205;-82
2021/03/07 07:02:22;;;;;;;10.05;9.05;;;-0.50;94.20;;;;;;4927554;29;20198;-82
2021/03/07 07:04:49;;;;;;;8.45;7.40;;;-0.50;94.10;;;;;;4927813;29;20203;-82
2021/03/07 07:07:17;;;;;;;8.02;7.28;;;-0.40;93.90;;;;;;4927103;29;20650;-82
2021/03/07 07:09:44;;;;;;;7.80;7.00;;;-0.30;93.70;;;;;;4925587;29;20241;-82
2021/03/07 07:12:19;;;;;;;9.38;8.00;;;-0.20;93.70;;;;;;4926559;29;20574;-81
2021/03/07 07:14:47;;;;;;;10.57;7.97;;;-0.10;93.70;;;;;;4926035;29;20210;-81
2021/03/07 07:17:15;;;;;;;8.57;7.78;;;0.00;93.70;;;;;;4925660;29;20222;-82
2021/03/07 07:19:43;;;;;;;12.90;8.18;;;0.10;93.60;;;;;;4927505;29;20666;-82
2021/03/07 07:22:11;;;;;;;8.27;7.05;;;0.20;93.40;;;;;;4921494;29;20230;-82
2021/03/07 07:24:38;;;;;;;8.10;7.28;;;0.30;93.00;;;;;;4926301;29;20199;-82
2021/03/07 07:27:05;;;;;;;8.52;7.72;;;0.40;93.30;;;;;;4928700;29;20209;-81
2021/03/07 07:29:33;;;;;;;8.45;7.65;;;0.40;93.80;;;;;;4932555;29;20675;-81
2021/03/07 07:32:04;;;;;;;9.25;7.78;;;0.50;94.20;;;;;;4931615;29;20226;-81
2021/03/07 07:34:34;;;;;;;10.10;8.27;;;0.60;94.40;;;;;;4932637;29;20214;-80
2021/03/07 07:37:05;;;;;;;9.05;8.15;;;0.80;94.50;;;;;;4930337;29;20222;-81
2021/03/07 07:39:33;;;;;;;8.40;7.70;;;1.00;94.20;;;;;;4933424;29;20231;-81
2021/03/07 07:42:21;;;;;;;9.70;8.82;;;1.10;93.40;;;;;;4920678;29;20936;-81
2021/03/07 07:44:49;;;;;;;9.15;7.10;;;1.30;93.30;;;;;;4920486;29;20238;-80
2021/03/07 07:47:17;;;;;;;7.03;6.43;;;1.50;92.80;;;;;;4920242;29;20244;-80
2021/03/07 07:49:46;;;;;;;7.13;6.25;;;1.70;92.60;;;;;;4920298;29;20214;-81
2021/03/07 07:52:34;;;;;;;10.70;7.80;;;1.90;92.10;;;;;;4920055;29;20243;-82
2021/03/07 07:55:04;;;;;;;10.35;8.23;;;2.10;91.80;;;;;;4921441;29;20219;-81
2021/03/07 07:57:42;;;;;;;9.52;7.93;;;2.20;91.20;;;;;;4921057;29;20228;-81
2021/03/07 08:00:11;;;;;;;10.57;9.23;;;2.30;90.90;;;;;;4920714;29;20257;-80
2021/03/07 08:02:52;;;;;;;8.23;7.47;;;2.40;90.60;;;;;;4920438;29;20213;-81
2021/03/07 08:05:41;;;;;;;14.18;8.55;;;2.50;90.20;;;;;;4920147;29;20205;-81
2021/03/07 08:08:09;;;;;;;10.52;7.80;;;2.60;90.10;;;;;;4919792;29;20215;-81
2021/03/07 08:10:44;;;;;;;8.57;7.78;;;2.60;90.20;;;;;;4920496;29;20230;-81
2021/03/07 08:13:11;;;;;;;10.23;8.70;;;2.70;90.10;;;;;;4920764;29;20224;-80
2021/03/07 08:15:46;;;;;;;8.25;7.10;;;2.80;89.70;;;;;;4927367;29;20248;-80
2021/03/07 08:18:17;;;;;;;8.80;7.88;;;2.80;89.70;;;;;;4926272;29;20232;-79
2021/03/07 08:21:03;;;;;;;9.15;8.25;;;2.90;89.50;;;;;;4924774;29;20269;-81
2021/03/07 08:23:30;;;;;;;9.45;8.52;;;3.00;89.70;;;;;;4920415;29;20210;-81
2021/03/07 08:26:05;;;;;;;9.90;8.90;;;3.00;89.50;;;;;;4920022;29;20272;-81
2021/03/07 08:28:41;;;;;;;8.20;7.40;;;3.10;89.30;;;;;;4920321;29;20189;-81
2021/03/07 08:31:09;;;;;;;9.05;7.40;;;3.20;89.70;;;;;;4920131;29;20228;-81
2021/03/07 08:33:37;;;;;;;9.68;8.68;;;3.40;90.00;;;;;;4920171;29;20273;-81
2021/03/07 08:36:12;;;;;;;11.70;10.07;;;3.50;90.10;;;;;;4919987;29;20218;-81
2021/03/07 08:39:14;;;;;;;9.20;8.23;;;3.70;89.50;;;;;;4919947;29;20320;-81
2021/03/07 08:42:00;;;;;;;9.95;7.93;;;3.90;88.10;;;;;;4920187;29;20304;-82
2021/03/07 08:44:27;;;;;;;8.38;7.50;;;4.00;87.00;;;;;;4920139;29;20243;-81
2021/03/07 08:46:54;;;;;;;7.95;7.15;;;4.00;86.40;;;;;;4919855;29;20216;-81
2021/03/07 08:49:23;;;;;;;8.30;7.50;;;4.10;86.30;;;;;;4919617;29;20237;-81
2021/03/07 08:51:52;;;;;;;10.90;9.10;;;4.10;85.90;;;;;;4919469;29;20296;-81
2021/03/07 08:54:20;;;;;;;9.45;8.45;;;4.30;86.10;;;;;;4920175;29;20264;-81
2021/03/07 08:56:47;;;;;;;9.15;7.60;;;4.40;86.00;;;;;;4919559;29;20230;-82
2021/03/07 08:59:14;;;;;;;8.05;7.15;;;4.50;87.30;;;;;;4919765;29;20210;-81
2021/03/07 09:01:41;;;;;;;11.10;9.02;;;4.70;86.40;;;;;;4920008;29;20322;-81
2021/03/07 09:04:08;;;;;;;11.43;8.63;;;4.80;85.30;;;;;;4919840;29;20214;-81
2021/03/07 09:06:38;;;;;;;9.43;8.48;;;5.00;85.00;;;;;;4919790;29;20221;-80
2021/03/07 09:09:09;;;;;;;7.97;7.18;;;5.10;84.70;;;;;;4919771;29;20282;-81
2021/03/07 09:11:37;;;;;;;10.90;9.88;;;5.30;83.90;;;;;;4919949;29;20238;-81
2021/03/07 09:14:05;;;;;;;8.52;7.72;;;5.40;84.20;;;;;;4920157;29;20218;-81
2021/03/07 09:16:40;;;;;;;10.50;9.50;;;5.60;84.20;;;;;;4919724;29;20242;-81
2021/03/07 09:19:20;;;;;;;10.93;8.20;;;5.80;83.40;;;;;;4920088;29;20218;-79
2021/03/07 09:21:47;;;;;;;10.30;9.38;;;5.70;81.90;;;;;;4918970;29;20234;-80
2021/03/07 09:24:13;;;;;;;11.10;9.75;;;5.90;82.30;;;;;;4928395;29;20209;-80
2021/03/07 09:26:40;;;;;;;13.02;10.32;;;6.00;82.00;;;;;;4927076;29;20202;-80
2021/03/07 09:29:06;;;;;;;9.35;8.40;;;6.20;82.60;;;;;;4926787;29;20206;-81
2021/03/07 09:31:34;;;;;;;11.13;9.10;;;6.30;81.70;;;;;;4935355;29;20226;-80
2021/03/07 09:34:03;;;;;;;11.20;9.82;;;6.00;81.80;;;;;;4938509;29;20229;-81
2021/03/07 09:36:31;;;;;;;11.40;10.20;;;6.20;82.30;;;;;;4937793;29;20237;-81
2021/03/07 09:39:00;;;;;;;12.27;10.70;;;6.30;83.00;;;;;;4938118;29;20217;-81
2021/03/07 09:41:31;;;;;;;10.93;9.77;;;6.50;83.00;;;;;;4937474;29;20230;-80
2021/03/07 09:43:59;;;;;;;12.90;10.48;;;6.70;82.30;;;;;;4937808;29;20220;-81
2021/03/07 09:46:26;;;;;;;11.40;10.25;;;6.80;81.50;;;;;;4931427;29;20213;-80
2021/03/07 09:48:58;;;;;;;11.93;10.55;;;6.90;81.20;;;;;;4928121;29;20206;-83
2021/03/07 09:51:29;;;;;;;10.02;8.95;;;6.80;81.20;;;;;;4928415;29;20237;-82
2021/03/07 09:53:55;;;;;;;12.13;10.05;;;6.90;81.70;;;;;;4930371;29;20214;-80
2021/03/07 09:56:29;;;;;;;11.93;9.73;;;6.80;81.90;;;;;;4920098;29;20218;-80
2021/03/07 09:59:08;;;;;;;11.95;10.70;;;6.90;82.10;;;;;;4919459;29;20194;-80
2021/03/07 10:01:41;;;;;;;12.10;9.63;;;6.90;81.20;;;;;;4918660;29;20237;-80
2021/03/07 10:04:25;;;;;;;12.18;9.98;;;7.10;81.70;;;;;;4918733;29;20594;-79
2021/03/07 10:06:52;;;;;;;10.38;9.27;;;7.10;81.10;;;;;;4918527;29;20203;-79
2021/03/07 10:09:18;;;;;;;10.65;8.82;;;7.20;80.60;;;;;;4918176;29;20210;-79
2021/03/07 10:11:58;;;;;;;10.20;9.13;;;7.40;80.80;;;;;;4917933;29;20241;-80
2021/03/07 10:14:27;;;;;;;11.52;10.43;;;7.60;81.00;;;;;;4918540;29;20912;-80
2021/03/07 10:16:54;;;;;;;12.30;11.00;;;7.80;80.00;;;;;;4918804;29;20260;-80
2021/03/07 10:19:21;;;;;;;12.68;11.40;;;8.00;79.50;;;;;;4918508;29;20262;-80
2021/03/07 10:21:55;;;;;;;12.82;9.27;;;8.10;78.50;;;;;;4918196;29;20238;-80
2021/03/07 10:24:21;;;;;;;11.52;9.38;;;8.30;78.30;;;;;;4918610;29;20301;-80
2021/03/07 10:26:50;;;;;;;10.70;9.75;;;8.50;77.60;;;;;;4918262;29;20208;-80
2021/03/07 10:29:36;;;;;;;10.32;9.25;;;8.70;77.10;;;;;;4918219;29;20216;-80
2021/03/07 10:32:13;;;;;;;10.38;9.25;;;9.00;76.10;;;;;;4918620;29;20224;-80
2021/03/07 10:34:40;;;;;;;12.05;10.05;;;9.20;75.50;;;;;;4918590;29;20230;-78
2021/03/07 10:37:08;;;;;;;11.93;10.48;;;9.30;74.10;;;;;;4917853;29;20234;-80
2021/03/07 10:39:34;;;;;;;12.77;10.27;;;9.20;73.10;;;;;;4918266;29;20217;-79
2021/03/07 10:42:09;;;;;;;9.38;8.30;;;9.10;74.10;;;;;;4918089;29;20235;-79
2021/03/07 10:44:37;;;;;;;12.88;9.75;;;8.90;72.90;;;;;;4918320;29;20214;-80
2021/03/07 10:47:14;;;;;;;10.52;9.52;;;8.90;73.90;;;;;;4918336;29;20207;-79
2021/03/07 10:49:41;;;;;;;11.30;10.18;;;8.90;72.90;;;;;;4918348;29;20215;-80
2021/03/07 10:52:07;;;;;;;14.05;10.45;;;9.00;74.10;;;;;;4918219;29;20239;-79
2021/03/07 10:54:33;;;;;;;10.73;9.73;;;9.00;73.20;;;;;;4919311;29;20213;-81
2021/03/07 10:57:00;;;;;;;12.45;10.55;;;9.00;73.00;;;;;;4921167;29;20725;-81
2021/03/07 10:59:26;;;;;;;11.48;10.38;;;9.20;74.70;;;;;;4922555;29;20216;-79
2021/03/07 11:01:53;;;;;;;11.13;9.90;;;9.50;74.10;;;;;;4925078;29;20653;-79
2021/03/07 11:04:19;;;;;;;14.03;10.83;;;9.80;72.20;;;;;;4924581;29;20468;-81
2021/03/07 11:06:45;;;;;;;12.07;10.87;;;9.80;71.90;;;;;;4924786;29;20461;-81
2021/03/07 11:09:12;;;;;;;14.43;12.27;;;10.10;71.10;;;;;;4923882;29;20468;-81
2021/03/07 11:11:39;;;;;;;12.77;11.07;;;10.80;72.30;;;;;;4932244;29;20501;-78
2021/03/07 11:14:06;;;;;;;11.83;10.60;;;11.50;66.50;;;;;;4932705;29;20462;-80
2021/03/07 11:16:32;;;;;;;13.10;11.80;;;11.90;65.50;;;;;;4933623;29;20458;-78
2021/03/07 11:18:59;;;;;;;11.37;10.17;;;12.30;64.40;;;;;;4926751;29;20517;-81
2021/03/07 11:21:25;;;;;;;10.90;9.70;;;13.00;65.80;;;;;;4925081;29;20478;-81
2021/03/07 11:23:52;;;;;;;11.50;10.40;;;13.80;61.60;;;;;;4924969;29;20514;-81
2021/03/07 11:26:18;;;;;;;12.17;10.97;;;14.40;57.10;;;;;;4925207;29;20451;-82
2021/03/07 11:28:44;;;;;;;11.80;10.20;;;14.60;55.20;;;;;;4924650;29;20470;-82
2021/03/07 11:31:10;;;;;;;12.87;11.53;;;14.80;54.40;;;;;;4923731;29;20480;-82
2021/03/07 11:33:37;;;;;;;11.53;10.43;;;15.00;54.60;;;;;;4923368;29;20554;-83
2021/03/07 11:36:05;;;;;;;10.50;9.50;;;15.50;53.70;;;;;;4923072;29;20455;-83
2021/03/07 11:38:31;;;;;;;11.43;10.43;;;16.10;52.20;;;;;;4923351;29;20492;-82
2021/03/07 11:40:57;;;;;;;11.57;10.50;;;16.70;51.10;;;;;;4923243;29;20513;-83
2021/03/07 11:43:24;;;;;;;12.10;11.03;;;17.30;48.60;;;;;;4922477;29;20456;-83
2021/03/07 11:45:50;;;;;;;11.20;10.23;;;17.70;47.50;;;;;;4924713;29;20489;-83
2021/03/07 11:48:16;;;;;;;10.77;9.90;;;18.10;45.60;;;;;;4923488;29;20461;-83
2021/03/07 11:50:42;;;;;;;12.43;11.30;;;18.40;46.20;;;;;;4923830;29;20485;-83
2021/03/07 11:53:10;;;;;;;11.63;10.60;;;18.90;45.60;;;;;;4923321;29;20902;-83
2021/03/07 11:55:36;;;;;;;11.37;10.27;;;19.10;42.90;;;;;;4923360;29;20474;-83
2021/03/07 11:58:02;;;;;;;12.60;11.60;;;19.00;43.10;;;;;;4923898;29;20486;-83
2021/03/07 12:00:29;;;;;;;11.80;10.80;;;19.20;41.40;;;;;;4923640;29;20481;-83
2021/03/07 12:02:55;;;;;;;11.60;10.60;;;19.00;40.30;;;;;;4923413;29;20521;-81
2021/03/07 12:05:21;;;;;;;11.57;10.57;;;18.70;40.70;;;;;;4923066;29;20457;-82
2021/03/07 12:07:48;;;;;;;12.30;11.10;;;18.70;40.70;;;;;;4922549;29;20500;-83
2021/03/07 12:10:16;;;;;;;12.73;11.43;;;18.70;41.00;;;;;;4921682;29;20494;-83
2021/03/07 12:12:42;;;;;;;11.87;10.77;;;18.80;40.40;;;;;;4927555;29;20830;-82
2021/03/07 12:15:10;;;;;;;12.40;11.30;;;19.10;40.10;;;;;;4925021;29;20980;-82
2021/03/07 12:17:36;;;;;;;11.70;10.70;;;19.50;40.00;;;;;;4924021;29;20482;-83
2021/03/07 12:20:04;;;;;;;11.83;10.80;;;19.70;39.00;;;;;;4930677;29;20466;-83
2021/03/07 12:22:30;;;;;;;12.40;11.33;;;19.80;38.50;;;;;;4929011;29;20455;-82
2021/03/07 12:24:56;;;;;;;11.10;10.10;;;19.90;38.20;;;;;;4932242;29;20481;-83
2021/03/07 12:27:24;;;;;;;10.50;9.70;;;20.30;38.40;;;;;;4927465;29;20455;-82
2021/03/07 12:29:50;;;;;;;11.90;10.80;;;20.40;37.60;;;;;;4929244;29;20458;-81
2021/03/07 12:32:17;;;;;;;12.47;11.47;;;20.60;38.00;;;;;;4929191;29;20450;-82
2021/03/07 12:34:43;;;;;;;11.07;10.17;;;21.10;37.50;;;;;;4930146;29;20463;-83
2021/03/07 12:37:09;;;;;;;12.20;11.00;;;21.70;36.80;;;;;;4929894;29;20487;-82
2021/03/07 12:39:38;;;;;;;11.70;10.70;;;22.20;35.20;;;;;;4930970;29;20452;-82
2021/03/07 12:42:04;;;;;;;11.43;10.47;;;22.40;34.40;;;;;;4928387;29;20474;-82
2021/03/07 12:44:32;;;;;;;11.40;10.33;;;22.50;33.00;;;;;;4933033;29;20452;-82
2021/03/07 12:46:58;;;;;;;11.73;10.73;;;21.60;32.80;;;;;;4929403;29;20451;-81
2021/03/07 12:49:24;;;;;;;12.03;11.00;;;21.10;33.80;;;;;;4939778;29;20501;-81